sensor_id;sensor_type;location;lat;lon;timestamp;P1;durP1;ratioP1;P2;durP2;ratioP2
21297;SDS011;10808;48.010;11.326;2022-08-01T00:01:07;2.60;;;2.40;;
21297;SDS011;10808;48.010;11.326;2022-08-01T00:03:33;3.77;;;2.50;;
21297;SDS011;10808;48.010;11.326;2022-08-01T00:05:59;3.47;;;2.80;;
21297;SDS011;10808;48.010;11.326;2022-08-01T00:08:25;2.83;;;2.60;;
21297;SDS011;10808;48.010;11.326;2022-08-01T00:10:51;4.05;;;3.05;;
21297;SDS011;10808;48.010;11.326;2022-08-01T00:13:17;3.10;;;2.40;;
21297;SDS011;10808;48.010;11.326;2022-08-01T00:15:43;3.05;;;2.60;;
21297;SDS011;10808;48.010;11.326;2022-08-01T00:18:09;3.67;;;2.53;;
21297;SDS011;10808;48.010;11.326;2022-08-01T00:20:35;3.25;;;2.55;;
21297;SDS011;10808;48.010;11.326;2022-08-01T00:23:02;3.95;;;2.70;;
21297;SDS011;10808;48.010;11.326;2022-08-01T00:25:28;4.10;;;2.45;;
21297;SDS011;10808;48.010;11.326;2022-08-01T00:27:56;3.45;;;2.67;;
21297;SDS011;10808;48.010;11.326;2022-08-01T00:30:22;2.72;;;2.30;;
21297;SDS011;10808;48.010;11.326;2022-08-01T00:32:48;3.58;;;2.42;;
21297;SDS011;10808;48.010;11.326;2022-08-01T00:35:14;3.67;;;2.60;;
21297;SDS011;10808;48.010;11.326;2022-08-01T00:37:40;4.78;;;2.60;;
21297;SDS011;10808;48.010;11.326;2022-08-01T00:40:06;2.70;;;2.50;;
21297;SDS011;10808;48.010;11.326;2022-08-01T00:42:33;3.10;;;2.80;;
21297;SDS011;10808;48.010;11.326;2022-08-01T00:44:59;3.03;;;2.70;;
21297;SDS011;10808;48.010;11.326;2022-08-01T00:47:25;2.57;;;2.37;;
21297;SDS011;10808;48.010;11.326;2022-08-01T00:49:51;4.68;;;2.80;;
21297;SDS011;10808;48.010;11.326;2022-08-01T00:52:17;4.85;;;2.60;;
21297;SDS011;10808;48.010;11.326;2022-08-01T00:54:44;3.35;;;2.60;;
21297;SDS011;10808;48.010;11.326;2022-08-01T00:57:10;2.80;;;2.60;;
21297;SDS011;10808;48.010;11.326;2022-08-01T00:59:37;3.10;;;2.60;;
21297;SDS011;10808;48.010;11.326;2022-08-01T01:02:04;3.15;;;2.70;;
21297;SDS011;10808;48.010;11.326;2022-08-01T01:04:30;2.90;;;2.60;;
21297;SDS011;10808;48.010;11.326;2022-08-01T01:12:27;4.05;;;2.78;;
21297;SDS011;10808;48.010;11.326;2022-08-01T01:15:04;3.35;;;2.30;;
21297;SDS011;10808;48.010;11.326;2022-08-01T01:17:52;7.93;;;3.08;;
21297;SDS011;10808;48.010;11.326;2022-08-01T01:20:24;3.92;;;2.72;;
21297;SDS011;10808;48.010;11.326;2022-08-01T01:30:53;4.43;;;2.63;;
21297;SDS011;10808;48.010;11.326;2022-08-01T01:33:22;4.40;;;2.55;;
21297;SDS011;10808;48.010;11.326;2022-08-01T01:35:51;6.53;;;3.00;;
21297;SDS011;10808;48.010;11.326;2022-08-01T01:38:24;2.88;;;2.60;;
21297;SDS011;10808;48.010;11.326;2022-08-01T01:40:53;4.22;;;2.80;;
21297;SDS011;10808;48.010;11.326;2022-08-01T01:43:21;3.25;;;2.67;;
21297;SDS011;10808;48.010;11.326;2022-08-01T01:45:49;3.07;;;2.77;;
21297;SDS011;10808;48.010;11.326;2022-08-01T01:48:18;2.92;;;2.63;;
21297;SDS011;10808;48.010;11.326;2022-08-01T01:50:46;5.78;;;3.00;;
21297;SDS011;10808;48.010;11.326;2022-08-01T01:53:17;3.50;;;2.50;;
21297;SDS011;10808;48.010;11.326;2022-08-01T01:55:46;4.22;;;2.70;;
21297;SDS011;10808;48.010;11.326;2022-08-01T01:58:15;4.17;;;2.60;;
21297;SDS011;10808;48.010;11.326;2022-08-01T02:00:42;3.17;;;2.53;;
21297;SDS011;10808;48.010;11.326;2022-08-01T02:03:11;3.92;;;2.40;;
21297;SDS011;10808;48.010;11.326;2022-08-01T02:05:39;3.03;;;2.43;;
21297;SDS011;10808;48.010;11.326;2022-08-01T02:08:07;3.15;;;2.60;;
21297;SDS011;10808;48.010;11.326;2022-08-01T02:10:36;2.90;;;2.70;;
21297;SDS011;10808;48.010;11.326;2022-08-01T02:13:04;2.85;;;2.65;;
21297;SDS011;10808;48.010;11.326;2022-08-01T02:15:34;6.80;;;2.72;;
21297;SDS011;10808;48.010;11.326;2022-08-01T02:18:05;3.50;;;2.70;;
21297;SDS011;10808;48.010;11.326;2022-08-01T02:20:32;4.80;;;2.70;;
21297;SDS011;10808;48.010;11.326;2022-08-01T02:23:10;3.80;;;2.65;;
21297;SDS011;10808;48.010;11.326;2022-08-01T02:25:55;2.67;;;2.47;;
21297;SDS011;10808;48.010;11.326;2022-08-01T02:28:30;3.05;;;2.67;;
21297;SDS011;10808;48.010;11.326;2022-08-01T02:31:04;5.18;;;2.35;;
21297;SDS011;10808;48.010;11.326;2022-08-01T02:33:34;3.73;;;2.80;;
21297;SDS011;10808;48.010;11.326;2022-08-01T02:36:04;3.67;;;2.60;;
21297;SDS011;10808;48.010;11.326;2022-08-01T02:38:37;3.08;;;2.60;;
21297;SDS011;10808;48.010;11.326;2022-08-01T02:41:11;5.23;;;3.10;;
21297;SDS011;10808;48.010;11.326;2022-08-01T02:43:43;2.97;;;2.70;;
21297;SDS011;10808;48.010;11.326;2022-08-01T02:46:16;3.53;;;2.65;;
21297;SDS011;10808;48.010;11.326;2022-08-01T02:48:45;2.83;;;2.63;;
21297;SDS011;10808;48.010;11.326;2022-08-01T02:51:12;4.95;;;2.88;;
21297;SDS011;10808;48.010;11.326;2022-08-01T02:53:41;3.20;;;2.55;;
21297;SDS011;10808;48.010;11.326;2022-08-01T02:56:09;4.00;;;2.60;;
21297;SDS011;10808;48.010;11.326;2022-08-01T02:58:36;3.25;;;2.60;;
21297;SDS011;10808;48.010;11.326;2022-08-01T03:01:05;3.00;;;2.70;;
21297;SDS011;10808;48.010;11.326;2022-08-01T03:03:32;4.63;;;2.80;;
21297;SDS011;10808;48.010;11.326;2022-08-01T03:06:01;4.05;;;2.67;;
21297;SDS011;10808;48.010;11.326;2022-08-01T03:08:28;3.97;;;2.90;;
21297;SDS011;10808;48.010;11.326;2022-08-01T03:10:55;4.93;;;2.87;;
21297;SDS011;10808;48.010;11.326;2022-08-01T03:13:24;3.13;;;2.70;;
21297;SDS011;10808;48.010;11.326;2022-08-01T03:15:52;4.05;;;2.75;;
21297;SDS011;10808;48.010;11.326;2022-08-01T03:18:21;4.05;;;2.78;;
21297;SDS011;10808;48.010;11.326;2022-08-01T03:20:49;4.38;;;2.70;;
21297;SDS011;10808;48.010;11.326;2022-08-01T03:23:17;2.90;;;2.60;;
21297;SDS011;10808;48.010;11.326;2022-08-01T03:25:46;5.75;;;2.70;;
21297;SDS011;10808;48.010;11.326;2022-08-01T03:28:14;3.13;;;2.72;;
21297;SDS011;10808;48.010;11.326;2022-08-01T03:30:42;4.25;;;2.67;;
21297;SDS011;10808;48.010;11.326;2022-08-01T03:33:09;4.10;;;2.70;;
21297;SDS011;10808;48.010;11.326;2022-08-01T03:35:37;2.92;;;2.60;;
21297;SDS011;10808;48.010;11.326;2022-08-01T03:38:08;3.28;;;2.70;;
21297;SDS011;10808;48.010;11.326;2022-08-01T03:40:39;2.83;;;2.63;;
21297;SDS011;10808;48.010;11.326;2022-08-01T03:43:52;5.53;;;2.70;;
21297;SDS011;10808;48.010;11.326;2022-08-01T03:46:06;3.67;;;2.70;;
21297;SDS011;10808;48.010;11.326;2022-08-01T03:48:36;3.17;;;2.80;;
21297;SDS011;10808;48.010;11.326;2022-08-01T03:51:06;3.40;;;2.70;;
21297;SDS011;10808;48.010;11.326;2022-08-01T03:53:34;3.35;;;2.72;;
21297;SDS011;10808;48.010;11.326;2022-08-01T03:56:02;2.83;;;2.60;;
21297;SDS011;10808;48.010;11.326;2022-08-01T03:58:29;3.08;;;2.60;;
21297;SDS011;10808;48.010;11.326;2022-08-01T04:00:56;3.28;;;2.70;;
21297;SDS011;10808;48.010;11.326;2022-08-01T04:03:23;3.22;;;2.80;;
21297;SDS011;10808;48.010;11.326;2022-08-01T04:05:50;4.65;;;2.85;;
21297;SDS011;10808;48.010;11.326;2022-08-01T04:08:16;5.28;;;3.03;;
21297;SDS011;10808;48.010;11.326;2022-08-01T04:10:42;3.55;;;2.50;;
21297;SDS011;10808;48.010;11.326;2022-08-01T04:13:08;2.90;;;2.60;;
21297;SDS011;10808;48.010;11.326;2022-08-01T04:15:34;3.95;;;2.58;;
21297;SDS011;10808;48.010;11.326;2022-08-01T04:18:00;3.00;;;2.63;;
21297;SDS011;10808;48.010;11.326;2022-08-01T04:20:26;4.93;;;2.83;;
21297;SDS011;10808;48.010;11.326;2022-08-01T04:22:52;3.50;;;2.70;;
21297;SDS011;10808;48.010;11.326;2022-08-01T04:25:22;5.72;;;2.72;;
21297;SDS011;10808;48.010;11.326;2022-08-01T04:28:00;4.10;;;2.88;;
21297;SDS011;10808;48.010;11.326;2022-08-01T04:30:30;5.25;;;2.75;;
21297;SDS011;10808;48.010;11.326;2022-08-01T04:32:59;5.00;;;2.80;;
21297;SDS011;10808;48.010;11.326;2022-08-01T04:35:26;3.85;;;2.95;;
21297;SDS011;10808;48.010;11.326;2022-08-01T04:37:53;3.30;;;2.67;;
21297;SDS011;10808;48.010;11.326;2022-08-01T04:40:21;5.30;;;2.60;;
21297;SDS011;10808;48.010;11.326;2022-08-01T04:42:48;4.17;;;2.90;;
21297;SDS011;10808;48.010;11.326;2022-08-01T04:45:15;6.93;;;2.72;;
21297;SDS011;10808;48.010;11.326;2022-08-01T04:47:42;3.38;;;3.08;;
21297;SDS011;10808;48.010;11.326;2022-08-01T04:50:09;3.72;;;3.00;;
21297;SDS011;10808;48.010;11.326;2022-08-01T04:52:37;5.45;;;2.80;;
21297;SDS011;10808;48.010;11.326;2022-08-01T04:55:04;3.45;;;2.90;;
21297;SDS011;10808;48.010;11.326;2022-08-01T04:57:38;3.03;;;2.45;;
21297;SDS011;10808;48.010;11.326;2022-08-01T05:00:07;4.05;;;2.80;;
21297;SDS011;10808;48.010;11.326;2022-08-01T05:02:33;4.78;;;2.70;;
21297;SDS011;10808;48.010;11.326;2022-08-01T05:05:00;5.40;;;3.07;;
21297;SDS011;10808;48.010;11.326;2022-08-01T05:07:26;5.53;;;2.77;;
21297;SDS011;10808;48.010;11.326;2022-08-01T05:09:52;4.22;;;2.50;;
21297;SDS011;10808;48.010;11.326;2022-08-01T05:12:18;4.50;;;2.77;;
21297;SDS011;10808;48.010;11.326;2022-08-01T05:14:44;4.07;;;2.90;;
21297;SDS011;10808;48.010;11.326;2022-08-01T05:17:11;4.28;;;2.70;;
21297;SDS011;10808;48.010;11.326;2022-08-01T05:19:37;3.20;;;2.90;;
21297;SDS011;10808;48.010;11.326;2022-08-01T05:22:06;5.15;;;2.85;;
21297;SDS011;10808;48.010;11.326;2022-08-01T05:24:34;3.75;;;2.63;;
21297;SDS011;10808;48.010;11.326;2022-08-01T05:27:01;4.03;;;2.80;;
21297;SDS011;10808;48.010;11.326;2022-08-01T05:29:27;3.85;;;3.15;;
21297;SDS011;10808;48.010;11.326;2022-08-01T05:31:53;3.47;;;2.88;;
21297;SDS011;10808;48.010;11.326;2022-08-01T05:34:19;4.10;;;2.90;;
21297;SDS011;10808;48.010;11.326;2022-08-01T05:36:46;3.07;;;2.70;;
21297;SDS011;10808;48.010;11.326;2022-08-01T05:39:13;4.03;;;2.60;;
21297;SDS011;10808;48.010;11.326;2022-08-01T05:41:39;5.30;;;2.80;;
21297;SDS011;10808;48.010;11.326;2022-08-01T05:44:06;4.20;;;2.60;;
21297;SDS011;10808;48.010;11.326;2022-08-01T05:46:32;4.30;;;2.60;;
21297;SDS011;10808;48.010;11.326;2022-08-01T05:49:00;4.63;;;3.08;;
21297;SDS011;10808;48.010;11.326;2022-08-01T05:51:27;3.28;;;2.90;;
21297;SDS011;10808;48.010;11.326;2022-08-01T05:53:53;3.67;;;2.80;;
21297;SDS011;10808;48.010;11.326;2022-08-01T05:56:19;3.75;;;3.08;;
21297;SDS011;10808;48.010;11.326;2022-08-01T05:58:47;4.00;;;2.88;;
21297;SDS011;10808;48.010;11.326;2022-08-01T06:01:14;3.65;;;2.63;;
21297;SDS011;10808;48.010;11.326;2022-08-01T06:03:41;3.80;;;2.90;;
21297;SDS011;10808;48.010;11.326;2022-08-01T06:06:07;4.27;;;2.80;;
21297;SDS011;10808;48.010;11.326;2022-08-01T06:08:33;3.33;;;2.97;;
21297;SDS011;10808;48.010;11.326;2022-08-01T06:10:59;3.80;;;3.05;;
21297;SDS011;10808;48.010;11.326;2022-08-01T06:13:25;3.50;;;3.00;;
21297;SDS011;10808;48.010;11.326;2022-08-01T06:15:51;4.20;;;2.60;;
21297;SDS011;10808;48.010;11.326;2022-08-01T06:18:17;3.72;;;2.72;;
21297;SDS011;10808;48.010;11.326;2022-08-01T06:20:43;3.58;;;2.83;;
21297;SDS011;10808;48.010;11.326;2022-08-01T06:23:10;5.60;;;2.67;;
21297;SDS011;10808;48.010;11.326;2022-08-01T06:25:36;4.85;;;2.97;;
21297;SDS011;10808;48.010;11.326;2022-08-01T06:28:02;10.57;;;3.10;;
21297;SDS011;10808;48.010;11.326;2022-08-01T06:30:29;3.60;;;2.80;;
21297;SDS011;10808;48.010;11.326;2022-08-01T06:32:55;3.45;;;2.80;;
21297;SDS011;10808;48.010;11.326;2022-08-01T06:35:24;3.33;;;3.00;;
21297;SDS011;10808;48.010;11.326;2022-08-01T06:37:50;4.55;;;3.00;;
21297;SDS011;10808;48.010;11.326;2022-08-01T06:40:16;4.55;;;3.30;;
21297;SDS011;10808;48.010;11.326;2022-08-01T06:42:43;5.82;;;3.20;;
21297;SDS011;10808;48.010;11.326;2022-08-01T06:45:11;3.70;;;3.08;;
21297;SDS011;10808;48.010;11.326;2022-08-01T06:47:38;4.95;;;3.22;;
21297;SDS011;10808;48.010;11.326;2022-08-01T06:50:05;5.82;;;3.08;;
21297;SDS011;10808;48.010;11.326;2022-08-01T06:52:34;3.55;;;3.15;;
21297;SDS011;10808;48.010;11.326;2022-08-01T06:55:00;3.63;;;3.00;;
21297;SDS011;10808;48.010;11.326;2022-08-01T06:57:27;3.83;;;2.83;;
21297;SDS011;10808;48.010;11.326;2022-08-01T06:59:53;4.75;;;3.28;;
21297;SDS011;10808;48.010;11.326;2022-08-01T07:02:20;4.32;;;3.38;;
21297;SDS011;10808;48.010;11.326;2022-08-01T07:04:46;3.47;;;3.17;;
21297;SDS011;10808;48.010;11.326;2022-08-01T07:07:12;3.90;;;2.88;;
21297;SDS011;10808;48.010;11.326;2022-08-01T07:09:38;6.28;;;3.40;;
21297;SDS011;10808;48.010;11.326;2022-08-01T07:12:06;3.88;;;3.35;;
21297;SDS011;10808;48.010;11.326;2022-08-01T07:14:33;3.87;;;3.37;;
21297;SDS011;10808;48.010;11.326;2022-08-01T07:16:59;3.53;;;3.20;;
21297;SDS011;10808;48.010;11.326;2022-08-01T07:19:25;4.63;;;3.20;;
21297;SDS011;10808;48.010;11.326;2022-08-01T07:21:51;3.80;;;3.28;;
21297;SDS011;10808;48.010;11.326;2022-08-01T07:24:17;3.72;;;3.33;;
21297;SDS011;10808;48.010;11.326;2022-08-01T07:26:47;4.38;;;3.30;;
21297;SDS011;10808;48.010;11.326;2022-08-01T07:29:14;4.03;;;3.50;;
21297;SDS011;10808;48.010;11.326;2022-08-01T07:31:40;3.70;;;3.30;;
21297;SDS011;10808;48.010;11.326;2022-08-01T07:34:06;5.97;;;3.60;;
21297;SDS011;10808;48.010;11.326;2022-08-01T07:36:33;4.65;;;3.72;;
21297;SDS011;10808;48.010;11.326;2022-08-01T07:38:59;5.05;;;3.60;;
21297;SDS011;10808;48.010;11.326;2022-08-01T07:41:25;4.63;;;3.42;;
21297;SDS011;10808;48.010;11.326;2022-08-01T07:43:51;5.63;;;3.60;;
21297;SDS011;10808;48.010;11.326;2022-08-01T07:46:17;3.50;;;3.20;;
21297;SDS011;10808;48.010;11.326;2022-08-01T07:48:43;3.90;;;3.40;;
21297;SDS011;10808;48.010;11.326;2022-08-01T07:51:09;4.30;;;3.50;;
21297;SDS011;10808;48.010;11.326;2022-08-01T07:53:36;5.53;;;3.60;;
21297;SDS011;10808;48.010;11.326;2022-08-01T07:56:02;4.07;;;3.35;;
21297;SDS011;10808;48.010;11.326;2022-08-01T07:58:31;5.35;;;3.70;;
21297;SDS011;10808;48.010;11.326;2022-08-01T08:00:58;4.00;;;3.60;;
21297;SDS011;10808;48.010;11.326;2022-08-01T08:03:24;3.97;;;3.40;;
21297;SDS011;10808;48.010;11.326;2022-08-01T08:05:50;4.50;;;3.65;;
21297;SDS011;10808;48.010;11.326;2022-08-01T08:08:16;5.20;;;3.90;;
21297;SDS011;10808;48.010;11.326;2022-08-01T08:10:43;4.25;;;3.65;;
21297;SDS011;10808;48.010;11.326;2022-08-01T08:13:09;4.40;;;3.53;;
21297;SDS011;10808;48.010;11.326;2022-08-01T08:15:35;3.88;;;3.50;;
21297;SDS011;10808;48.010;11.326;2022-08-01T08:18:02;3.88;;;3.50;;
21297;SDS011;10808;48.010;11.326;2022-08-01T08:20:29;3.60;;;3.10;;
21297;SDS011;10808;48.010;11.326;2022-08-01T08:22:59;4.07;;;3.65;;
21297;SDS011;10808;48.010;11.326;2022-08-01T08:25:25;4.38;;;3.20;;
21297;SDS011;10808;48.010;11.326;2022-08-01T08:27:54;4.75;;;3.70;;
21297;SDS011;10808;48.010;11.326;2022-08-01T08:30:20;4.00;;;3.60;;
21297;SDS011;10808;48.010;11.326;2022-08-01T08:32:46;6.03;;;3.50;;
21297;SDS011;10808;48.010;11.326;2022-08-01T08:35:12;3.38;;;3.08;;
21297;SDS011;10808;48.010;11.326;2022-08-01T08:37:38;4.40;;;3.38;;
21297;SDS011;10808;48.010;11.326;2022-08-01T08:40:05;6.88;;;3.55;;
21297;SDS011;10808;48.010;11.326;2022-08-01T08:42:31;4.85;;;3.58;;
21297;SDS011;10808;48.010;11.326;2022-08-01T08:44:58;4.07;;;3.17;;
21297;SDS011;10808;48.010;11.326;2022-08-01T08:47:24;5.30;;;3.30;;
21297;SDS011;10808;48.010;11.326;2022-08-01T08:49:54;3.97;;;3.33;;
21297;SDS011;10808;48.010;11.326;2022-08-01T08:52:23;3.75;;;3.03;;
21297;SDS011;10808;48.010;11.326;2022-08-01T08:54:50;3.05;;;2.70;;
21297;SDS011;10808;48.010;11.326;2022-08-01T08:57:18;3.10;;;2.80;;
21297;SDS011;10808;48.010;11.326;2022-08-01T08:59:46;3.10;;;2.70;;
21297;SDS011;10808;48.010;11.326;2022-08-01T09:02:12;9.93;;;2.80;;
21297;SDS011;10808;48.010;11.326;2022-08-01T09:04:38;3.08;;;2.65;;
21297;SDS011;10808;48.010;11.326;2022-08-01T09:07:05;3.33;;;2.70;;
21297;SDS011;10808;48.010;11.326;2022-08-01T09:09:33;3.30;;;2.42;;
21297;SDS011;10808;48.010;11.326;2022-08-01T09:11:59;2.97;;;2.63;;
21297;SDS011;10808;48.010;11.326;2022-08-01T09:14:25;3.88;;;2.97;;
21297;SDS011;10808;48.010;11.326;2022-08-01T09:17:04;4.20;;;2.87;;
21297;SDS011;10808;48.010;11.326;2022-08-01T09:19:34;6.22;;;2.90;;
21297;SDS011;10808;48.010;11.326;2022-08-01T09:22:09;3.97;;;2.58;;
21297;SDS011;10808;48.010;11.326;2022-08-01T09:24:39;4.07;;;3.13;;
21297;SDS011;10808;48.010;11.326;2022-08-01T09:27:19;5.03;;;2.80;;
21297;SDS011;10808;48.010;11.326;2022-08-01T09:29:46;4.23;;;2.60;;
21297;SDS011;10808;48.010;11.326;2022-08-01T09:32:12;3.42;;;2.60;;
21297;SDS011;10808;48.010;11.326;2022-08-01T09:34:38;3.05;;;2.75;;
21297;SDS011;10808;48.010;11.326;2022-08-01T09:37:04;6.50;;;2.60;;
21297;SDS011;10808;48.010;11.326;2022-08-01T09:39:32;3.67;;;2.63;;
21297;SDS011;10808;48.010;11.326;2022-08-01T09:42:19;2.83;;;2.40;;
21297;SDS011;10808;48.010;11.326;2022-08-01T09:44:47;4.80;;;2.40;;
21297;SDS011;10808;48.010;11.326;2022-08-01T09:47:13;3.33;;;2.42;;
21297;SDS011;10808;48.010;11.326;2022-08-01T09:49:42;6.30;;;2.58;;
21297;SDS011;10808;48.010;11.326;2022-08-01T09:52:17;3.72;;;2.30;;
21297;SDS011;10808;48.010;11.326;2022-08-01T09:57:24;2.88;;;2.20;;
21297;SDS011;10808;48.010;11.326;2022-08-01T09:59:51;2.55;;;2.30;;
21297;SDS011;10808;48.010;11.326;2022-08-01T10:05:05;2.85;;;1.92;;
21297;SDS011;10808;48.010;11.326;2022-08-01T10:07:32;3.42;;;2.30;;
21297;SDS011;10808;48.010;11.326;2022-08-01T10:10:09;3.27;;;2.27;;
21297;SDS011;10808;48.010;11.326;2022-08-01T10:12:36;5.97;;;2.10;;
21297;SDS011;10808;48.010;11.326;2022-08-01T10:15:03;3.40;;;2.08;;
21297;SDS011;10808;48.010;11.326;2022-08-01T10:17:30;4.22;;;2.10;;
21297;SDS011;10808;48.010;11.326;2022-08-01T10:19:59;3.38;;;2.30;;
21297;SDS011;10808;48.010;11.326;2022-08-01T10:22:27;3.13;;;2.30;;
21297;SDS011;10808;48.010;11.326;2022-08-01T10:24:56;2.40;;;2.00;;
21297;SDS011;10808;48.010;11.326;2022-08-01T10:27:25;2.65;;;2.13;;
21297;SDS011;10808;48.010;11.326;2022-08-01T10:29:57;2.53;;;2.30;;
21297;SDS011;10808;48.010;11.326;2022-08-01T10:32:30;2.10;;;2.00;;
21297;SDS011;10808;48.010;11.326;2022-08-01T10:34:56;2.67;;;2.20;;
21297;SDS011;10808;48.010;11.326;2022-08-01T10:37:23;3.50;;;2.13;;
21297;SDS011;10808;48.010;11.326;2022-08-01T10:39:53;2.40;;;2.10;;
21297;SDS011;10808;48.010;11.326;2022-08-01T10:42:20;2.40;;;2.20;;
21297;SDS011;10808;48.010;11.326;2022-08-01T10:44:47;3.10;;;2.50;;
21297;SDS011;10808;48.010;11.326;2022-08-01T10:47:14;3.35;;;2.15;;
21297;SDS011;10808;48.010;11.326;2022-08-01T10:49:45;2.67;;;2.10;;
21297;SDS011;10808;48.010;11.326;2022-08-01T10:52:19;3.17;;;2.28;;
21297;SDS011;10808;48.010;11.326;2022-08-01T10:54:45;2.25;;;1.98;;
21297;SDS011;10808;48.010;11.326;2022-08-01T10:57:12;3.40;;;2.13;;
21297;SDS011;10808;48.010;11.326;2022-08-01T10:59:48;2.40;;;1.90;;
21297;SDS011;10808;48.010;11.326;2022-08-01T11:02:25;2.88;;;1.95;;
21297;SDS011;10808;48.010;11.326;2022-08-01T11:04:58;2.73;;;2.10;;
21297;SDS011;10808;48.010;11.326;2022-08-01T11:07:42;2.30;;;2.00;;
21297;SDS011;10808;48.010;11.326;2022-08-01T11:12:49;3.20;;;2.00;;
21297;SDS011;10808;48.010;11.326;2022-08-01T11:17:49;2.28;;;2.00;;
21297;SDS011;10808;48.010;11.326;2022-08-01T11:20:21;2.65;;;2.00;;
21297;SDS011;10808;48.010;11.326;2022-08-01T11:25:27;2.50;;;1.95;;
21297;SDS011;10808;48.010;11.326;2022-08-01T11:30:42;3.17;;;2.22;;
21297;SDS011;10808;48.010;11.326;2022-08-01T11:33:13;3.60;;;1.90;;
21297;SDS011;10808;48.010;11.326;2022-08-01T11:36:16;2.53;;;1.90;;
21297;SDS011;10808;48.010;11.326;2022-08-01T11:38:41;2.13;;;2.00;;
21297;SDS011;10808;48.010;11.326;2022-08-01T11:41:24;1.88;;;1.77;;
21297;SDS011;10808;48.010;11.326;2022-08-01T11:51:59;2.78;;;2.00;;
21297;SDS011;10808;48.010;11.326;2022-08-01T11:54:29;2.25;;;2.03;;
21297;SDS011;10808;48.010;11.326;2022-08-01T11:56:57;2.20;;;1.80;;
21297;SDS011;10808;48.010;11.326;2022-08-01T11:59:26;3.13;;;1.90;;
21297;SDS011;10808;48.010;11.326;2022-08-01T12:01:52;2.70;;;1.90;;
21297;SDS011;10808;48.010;11.326;2022-08-01T12:04:19;2.88;;;1.83;;
21297;SDS011;10808;48.010;11.326;2022-08-01T12:06:45;2.20;;;1.80;;
21297;SDS011;10808;48.010;11.326;2022-08-01T12:09:15;2.10;;;1.90;;
21297;SDS011;10808;48.010;11.326;2022-08-01T12:11:46;2.50;;;1.70;;
21297;SDS011;10808;48.010;11.326;2022-08-01T12:14:16;3.00;;;2.03;;
21297;SDS011;10808;48.010;11.326;2022-08-01T12:16:52;2.20;;;1.92;;
21297;SDS011;10808;48.010;11.326;2022-08-01T12:19:23;3.33;;;2.35;;
21297;SDS011;10808;48.010;11.326;2022-08-01T12:24:37;1.98;;;1.77;;
21297;SDS011;10808;48.010;11.326;2022-08-01T12:27:05;3.25;;;2.10;;
21297;SDS011;10808;48.010;11.326;2022-08-01T12:29:32;2.53;;;1.90;;
21297;SDS011;10808;48.010;11.326;2022-08-01T12:34:50;2.17;;;1.60;;
21297;SDS011;10808;48.010;11.326;2022-08-01T12:37:18;2.72;;;1.70;;
21297;SDS011;10808;48.010;11.326;2022-08-01T12:39:45;2.53;;;1.90;;
21297;SDS011;10808;48.010;11.326;2022-08-01T12:42:11;2.35;;;1.63;;
21297;SDS011;10808;48.010;11.326;2022-08-01T12:44:38;1.70;;;1.60;;
21297;SDS011;10808;48.010;11.326;2022-08-01T12:47:05;1.60;;;1.50;;
21297;SDS011;10808;48.010;11.326;2022-08-01T12:49:32;3.00;;;1.58;;
21297;SDS011;10808;48.010;11.326;2022-08-01T12:52:01;1.77;;;1.60;;
21297;SDS011;10808;48.010;11.326;2022-08-01T12:54:27;4.30;;;1.70;;
21297;SDS011;10808;48.010;11.326;2022-08-01T12:56:53;2.10;;;1.65;;
21297;SDS011;10808;48.010;11.326;2022-08-01T12:59:24;1.80;;;1.63;;
21297;SDS011;10808;48.010;11.326;2022-08-01T13:01:52;3.10;;;1.90;;
21297;SDS011;10808;48.010;11.326;2022-08-01T13:04:19;1.92;;;1.70;;
21297;SDS011;10808;48.010;11.326;2022-08-01T13:06:46;1.90;;;1.48;;
21297;SDS011;10808;48.010;11.326;2022-08-01T13:09:13;2.13;;;1.60;;
21297;SDS011;10808;48.010;11.326;2022-08-01T13:11:40;2.83;;;1.50;;
21297;SDS011;10808;48.010;11.326;2022-08-01T13:14:06;2.80;;;1.60;;
21297;SDS011;10808;48.010;11.326;2022-08-01T13:16:32;2.00;;;1.60;;
21297;SDS011;10808;48.010;11.326;2022-08-01T13:19:11;1.83;;;1.40;;
21297;SDS011;10808;48.010;11.326;2022-08-01T13:21:38;1.77;;;1.50;;
21297;SDS011;10808;48.010;11.326;2022-08-01T13:24:11;2.58;;;1.60;;
21297;SDS011;10808;48.010;11.326;2022-08-01T13:26:45;1.92;;;1.58;;
21297;SDS011;10808;48.010;11.326;2022-08-01T13:29:31;2.33;;;1.70;;
21297;SDS011;10808;48.010;11.326;2022-08-01T13:35:02;2.70;;;1.52;;
21297;SDS011;10808;48.010;11.326;2022-08-01T13:37:29;2.95;;;1.60;;
21297;SDS011;10808;48.010;11.326;2022-08-01T13:39:55;1.98;;;1.50;;
21297;SDS011;10808;48.010;11.326;2022-08-01T13:42:21;2.17;;;1.70;;
21297;SDS011;10808;48.010;11.326;2022-08-01T13:44:48;1.83;;;1.50;;
21297;SDS011;10808;48.010;11.326;2022-08-01T13:47:14;3.20;;;1.70;;
21297;SDS011;10808;48.010;11.326;2022-08-01T13:49:40;2.65;;;1.60;;
21297;SDS011;10808;48.010;11.326;2022-08-01T13:52:06;2.53;;;1.40;;
21297;SDS011;10808;48.010;11.326;2022-08-01T13:54:32;1.85;;;1.50;;
21297;SDS011;10808;48.010;11.326;2022-08-01T13:56:59;2.30;;;1.77;;
21297;SDS011;10808;48.010;11.326;2022-08-01T13:59:25;3.38;;;1.70;;
21297;SDS011;10808;48.010;11.326;2022-08-01T14:01:51;4.00;;;1.60;;
21297;SDS011;10808;48.010;11.326;2022-08-01T14:04:17;3.00;;;1.77;;
21297;SDS011;10808;48.010;11.326;2022-08-01T14:06:44;2.70;;;1.70;;
21297;SDS011;10808;48.010;11.326;2022-08-01T14:09:10;4.47;;;1.60;;
21297;SDS011;10808;48.010;11.326;2022-08-01T14:11:36;3.95;;;1.52;;
21297;SDS011;10808;48.010;11.326;2022-08-01T14:14:02;3.20;;;1.40;;
21297;SDS011;10808;48.010;11.326;2022-08-01T14:16:28;1.50;;;1.40;;
21297;SDS011;10808;48.010;11.326;2022-08-01T14:18:54;3.40;;;1.40;;
21297;SDS011;10808;48.010;11.326;2022-08-01T14:21:20;3.00;;;1.50;;
21297;SDS011;10808;48.010;11.326;2022-08-01T14:23:46;2.93;;;1.53;;
21297;SDS011;10808;48.010;11.326;2022-08-01T14:26:12;3.08;;;1.20;;
21297;SDS011;10808;48.010;11.326;2022-08-01T14:28:39;2.03;;;1.30;;
21297;SDS011;10808;48.010;11.326;2022-08-01T14:31:05;3.25;;;1.25;;
21297;SDS011;10808;48.010;11.326;2022-08-01T14:33:31;3.30;;;1.30;;
21297;SDS011;10808;48.010;11.326;2022-08-01T14:35:57;2.80;;;1.30;;
21297;SDS011;10808;48.010;11.326;2022-08-01T14:38:23;2.47;;;1.20;;
21297;SDS011;10808;48.010;11.326;2022-08-01T14:40:49;1.20;;;1.10;;
21297;SDS011;10808;48.010;11.326;2022-08-01T14:43:17;1.98;;;1.27;;
21297;SDS011;10808;48.010;11.326;2022-08-01T14:45:43;2.77;;;1.30;;
21297;SDS011;10808;48.010;11.326;2022-08-01T14:48:09;6.25;;;1.27;;
21297;SDS011;10808;48.010;11.326;2022-08-01T14:50:35;1.17;;;1.00;;
21297;SDS011;10808;48.010;11.326;2022-08-01T14:53:02;3.80;;;1.20;;
21297;SDS011;10808;48.010;11.326;2022-08-01T14:55:28;3.67;;;1.30;;
21297;SDS011;10808;48.010;11.326;2022-08-01T14:57:54;2.33;;;1.30;;
21297;SDS011;10808;48.010;11.326;2022-08-01T15:00:20;6.57;;;1.90;;
21297;SDS011;10808;48.010;11.326;2022-08-01T15:02:47;2.10;;;1.63;;
21297;SDS011;10808;48.010;11.326;2022-08-01T15:05:13;3.38;;;1.42;;
21297;SDS011;10808;48.010;11.326;2022-08-01T15:07:39;2.23;;;1.40;;
21297;SDS011;10808;48.010;11.326;2022-08-01T15:10:05;3.60;;;1.50;;
21297;SDS011;10808;48.010;11.326;2022-08-01T15:12:31;1.90;;;1.60;;
21297;SDS011;10808;48.010;11.326;2022-08-01T15:14:59;4.80;;;1.77;;
21297;SDS011;10808;48.010;11.326;2022-08-01T15:17:29;4.45;;;1.50;;
21297;SDS011;10808;48.010;11.326;2022-08-01T15:19:58;3.17;;;1.80;;
21297;SDS011;10808;48.010;11.326;2022-08-01T15:22:26;5.30;;;2.20;;
21297;SDS011;10808;48.010;11.326;2022-08-01T15:24:53;4.07;;;2.25;;